createdAt,value
2018-09-06T00:01:21.867Z,148376.03
2018-09-06T00:03:52.188Z,148385.98
2018-09-06T00:06:23.146Z,148385.98
2018-09-06T00:08:53.517Z,148352.41
2018-09-06T00:11:24.016Z,148357.38
2018-09-06T00:13:53.927Z,148356.14
2018-09-06T00:16:24.095Z,148338.69
2018-09-06T00:18:53.895Z,148344.91
2018-09-06T00:21:25.132Z,148363.61
2018-09-06T00:23:55.270Z,148349.92
2018-09-06T00:26:29.579Z,148329.97
2018-09-06T00:28:59.751Z,148320.03
2018-09-06T00:31:34.520Z,148316.30
2018-09-06T00:34:05.455Z,148310.08
2018-09-06T00:36:37.161Z,148308.84
2018-09-06T00:39:09.664Z,148307.59
2018-09-06T00:41:42.085Z,148321.28
2018-09-06T00:44:12.180Z,148315.06
2018-09-06T00:46:44.094Z,148303.86
2018-09-06T00:49:15.377Z,148302.63
2018-09-06T00:51:48.218Z,148333.70
2018-09-06T00:54:19.344Z,148308.84
2018-09-06T00:56:49.153Z,148282.67
2018-09-06T00:59:22.844Z,148275.17
2018-09-06T01:01:52.759Z,148321.28
2018-09-06T01:04:23.426Z,148338.69
2018-09-06T01:06:53.378Z,148322.52
2018-09-06T01:09:23.644Z,148315.06
2018-09-06T01:11:55.759Z,148323.75
2018-09-06T01:14:27.934Z,148333.70
2018-09-06T01:16:58.984Z,148321.28
2018-09-06T01:19:29.133Z,148342.41
2018-09-06T01:21:59.367Z,148348.69
2018-09-06T01:24:29.548Z,148381.02
2018-09-06T01:26:59.812Z,148381.02
2018-09-06T01:29:29.840Z,148369.83
2018-09-06T01:32:01.145Z,148381.02
2018-09-06T01:34:31.447Z,148385.98
2018-09-06T01:37:06.649Z,148397.23
2018-09-06T01:39:37.363Z,148415.89
2018-09-06T01:42:09.037Z,148443.31
2018-09-06T01:44:41.724Z,148465.69
2018-09-06T01:47:12.873Z,148479.38
2018-09-06T01:49:43.186Z,148443.31
2018-09-06T01:52:13.071Z,148442.06
2018-09-06T01:54:42.842Z,148442.06
2018-09-06T01:57:12.596Z,148432.06
2018-09-06T01:59:42.362Z,148398.47
2018-09-06T02:02:12.051Z,148374.80
2018-09-06T02:04:41.948Z,148387.23
2018-09-06T02:07:11.757Z,148388.48
2018-09-06T02:09:42.009Z,148348.69
2018-09-06T02:12:12.456Z,148320.03
2018-09-06T02:14:43.912Z,148343.66
2018-09-06T02:17:15.798Z,148291.37
2018-09-06T02:19:45.501Z,148246.53
2018-09-06T02:22:15.270Z,148268.95
2018-09-06T02:24:45.555Z,148237.81
2018-09-06T02:27:15.351Z,148232.84
2018-09-06T02:29:45.087Z,148234.09
2018-09-06T02:32:14.877Z,148231.61
2018-09-06T02:34:44.581Z,148225.39
2018-09-06T02:37:14.277Z,148254.03
2018-09-06T02:39:44.094Z,148256.52
2018-09-06T02:42:13.839Z,148250.25
2018-09-06T02:44:43.646Z,148262.73
2018-09-06T02:47:13.345Z,148239.06
2018-09-06T02:49:48.230Z,148227.88
2018-09-06T02:52:20.190Z,148236.58
2018-09-06T02:54:49.919Z,148219.17
2018-09-06T02:57:21.017Z,148221.66
2018-09-06T02:59:50.725Z,148202.97
2018-09-06T03:02:20.445Z,148129.58
2018-09-06T03:04:51.136Z,148119.64
2018-09-06T03:07:21.414Z,148100.95
2018-09-06T03:09:54.393Z,148084.80
2018-09-06T03:12:25.476Z,148109.66
2018-09-06T03:14:55.729Z,148098.47
2018-09-06T03:17:27.107Z,148110.89
2018-09-06T03:19:57.262Z,148128.34
2018-09-06T03:22:27.531Z,148140.77
2018-09-06T03:24:57.695Z,148149.47
2018-09-06T03:27:27.752Z,148037.47
2018-09-06T03:29:57.972Z,148146.98
2018-09-06T03:32:29.697Z,148095.97
2018-09-06T03:34:59.880Z,148092.25
2018-09-06T03:37:30.023Z,148107.16
2018-09-06T03:40:00.373Z,148107.16
2018-09-06T03:42:30.593Z,148088.52
2018-09-06T03:45:00.858Z,148083.55
2018-09-06T03:47:31.126Z,148102.19
2018-09-06T03:50:01.423Z,148102.19
2018-09-06T03:52:32.751Z,148092.25
2018-09-06T03:55:03.235Z,148092.25
2018-09-06T03:57:34.423Z,148097.22
2018-09-06T04:00:04.940Z,148083.55
2018-09-06T04:02:35.062Z,148107.16
2018-09-06T04:05:05.255Z,148095.97
2018-09-06T04:07:35.524Z,148093.48
2018-09-06T04:10:07.595Z,148113.42
2018-09-06T04:12:39.266Z,148103.44
2018-09-06T04:15:10.007Z,148117.16
2018-09-06T04:17:41.585Z,148113.42
2018-09-06T04:20:11.960Z,148125.84
2018-09-06T04:22:45.845Z,148144.50
2018-09-06T04:25:16.819Z,148146.98
2018-09-06T04:27:47.320Z,148173.13
2018-09-06T04:30:17.944Z,148191.78
2018-09-06T04:32:48.439Z,148221.66
2018-09-06T04:35:18.942Z,148260.25
2018-09-06T04:37:51.201Z,148302.63
2018-09-06T04:40:22.119Z,148363.61
2018-09-06T04:42:52.484Z,148399.72
2018-09-06T04:45:22.574Z,148382.25
2018-09-06T04:47:52.806Z,148403.45
2018-09-06T04:50:23.323Z,148384.75
2018-09-06T04:52:55.998Z,148433.31
2018-09-06T04:55:26.188Z,148425.84
2018-09-06T04:57:56.415Z,148404.69
2018-09-06T05:00:26.368Z,148428.33
2018-09-06T05:02:57.585Z,148443.31
2018-09-06T05:05:27.770Z,148466.94
2018-09-06T05:07:58.520Z,148408.42
2018-09-06T05:10:28.739Z,148415.89
2018-09-06T05:12:58.937Z,148443.31
2018-09-06T05:15:29.088Z,148438.28
2018-09-06T05:17:59.261Z,148478.14
2018-09-06T05:20:30.354Z,148489.38
2018-09-06T05:23:01.251Z,148485.61
2018-09-06T05:25:31.568Z,148513.06
2018-09-06T05:28:01.583Z,148445.80
2018-09-06T05:30:32.407Z,148480.62
2018-09-06T05:33:03.198Z,148538.00
2018-09-06T05:35:34.726Z,148570.36
2018-09-06T05:38:04.955Z,148577.83
2018-09-06T05:40:34.983Z,148582.81
2018-09-06T05:43:06.542Z,148600.28
2018-09-06T05:45:36.555Z,148665.05
2018-09-06T05:48:09.135Z,148708.66
2018-09-06T05:50:40.085Z,148631.44
2018-09-06T05:53:10.681Z,148680.03
2018-09-06T05:55:41.210Z,148726.19
2018-09-06T05:58:11.660Z,148706.17
2018-09-06T06:00:44.825Z,148711.16
2018-09-06T06:03:16.144Z,148782.27
2018-09-06T06:05:46.760Z,148813.41
2018-09-06T06:08:27.680Z,148837.11
2018-09-06T06:10:57.981Z,148807.17
2018-09-06T06:13:30.222Z,148797.22
2018-09-06T06:16:01.074Z,148829.63
2018-09-06T06:18:32.044Z,148884.48
2018-09-06T06:21:03.004Z,148916.92
2018-09-06T06:23:33.583Z,148930.67
2018-09-06T06:26:04.146Z,148956.83
2018-09-06T06:28:34.960Z,148960.56
2018-09-06T06:31:05.209Z,148906.91
2018-09-06T06:33:35.680Z,148930.67
2018-09-06T06:36:05.888Z,148949.36
2018-09-06T06:38:36.143Z,149116.53
2018-09-06T06:41:06.389Z,149536.13
2018-09-06T06:43:37.062Z,150203.91
2018-09-06T06:46:07.187Z,150243.97
2018-09-06T06:48:37.504Z,150534.50
2018-09-06T06:51:08.577Z,150674.83
2018-09-06T06:53:38.723Z,150917.98
2018-09-06T06:56:10.048Z,150717.44
2018-09-06T06:58:41.995Z,150450.53
2018-09-06T07:01:12.381Z,150604.61
2018-09-06T07:03:42.605Z,150701.11
2018-09-06T07:06:13.031Z,150840.25
2018-09-06T07:08:43.428Z,150762.50
2018-09-06T07:11:13.904Z,151023.33
2018-09-06T07:13:43.963Z,150702.36
2018-09-06T07:16:14.279Z,150352.89
2018-09-06T07:18:44.768Z,150173.81
2018-09-06T07:21:14.901Z,150028.72
2018-09-06T07:23:45.292Z,149864.87
2018-09-06T07:26:15.577Z,149852.34
2018-09-06T07:28:45.652Z,149808.53
2018-09-06T07:31:15.832Z,149782.31
2018-09-06T07:33:46.888Z,149783.56
2018-09-06T07:36:17.114Z,149741.06
2018-09-06T07:38:47.294Z,149766.03
2018-09-06T07:41:17.990Z,149749.80
2018-09-06T07:43:49.062Z,149561.08
2018-09-06T07:46:19.334Z,149564.81
2018-09-06T07:48:49.375Z,149562.33
2018-09-06T07:51:20.430Z,149516.11
2018-09-06T07:53:52.245Z,149489.86
2018-09-06T07:56:23.266Z,149456.12
2018-09-06T07:58:53.716Z,149497.39
2018-09-06T08:01:24.330Z,149478.58
2018-09-06T08:03:54.734Z,149478.58
2018-09-06T08:06:25.000Z,149461.13
2018-09-06T08:08:57.288Z,149437.42
2018-09-06T08:11:27.535Z,149414.91
2018-09-06T08:13:57.570Z,149478.58
2018-09-06T08:16:27.743Z,149486.12
2018-09-06T08:18:58.835Z,149473.59
2018-09-06T08:21:29.059Z,149528.59
2018-09-06T08:23:59.258Z,149516.11
2018-09-06T08:26:29.551Z,149543.61
2018-09-06T08:28:59.817Z,149583.59
2018-09-06T08:31:31.194Z,149632.31
2018-09-06T08:34:01.518Z,149696.06
2018-09-06T08:36:32.283Z,149712.30
2018-09-06T08:39:03.405Z,149646.05
2018-09-06T08:41:33.512Z,149623.53
2018-09-06T08:44:03.776Z,149634.81
2018-09-06T08:46:33.806Z,149662.27
2018-09-06T08:49:04.798Z,149661.03
2018-09-06T08:51:35.018Z,149732.31
2018-09-06T08:54:06.062Z,149781.06
2018-09-06T08:56:36.367Z,149689.83
2018-09-06T08:59:06.711Z,149683.59
2018-09-06T09:01:42.427Z,149643.55
2018-09-06T09:04:12.688Z,149733.56
2018-09-06T09:06:42.836Z,149786.06
2018-09-06T09:09:15.267Z,149769.83
2018-09-06T09:11:45.779Z,149713.55
2018-09-06T09:14:17.220Z,149709.80
2018-09-06T09:16:48.422Z,149756.03
2018-09-06T09:19:18.686Z,149737.31
2018-09-06T09:21:49.180Z,149784.81
2018-09-06T09:24:20.028Z,149763.53
2018-09-06T09:26:51.268Z,149699.81
2018-09-06T09:29:22.253Z,149741.06
2018-09-06T09:31:52.721Z,149806.03
2018-09-06T09:34:23.119Z,149856.09
2018-09-06T09:36:53.677Z,149821.06
2018-09-06T09:39:27.023Z,149863.63
2018-09-06T09:41:57.456Z,149791.06
2018-09-06T09:44:28.908Z,149727.33
2018-09-06T09:49:31.550Z,149889.84
2018-09-06T09:52:01.817Z,149893.59
2018-09-06T09:54:33.636Z,149872.38
2018-09-06T09:57:04.236Z,149848.59
2018-09-06T09:59:35.957Z,149828.56
2018-09-06T10:02:11.158Z,149862.38
2018-09-06T10:05:46.518Z,149898.59
2018-09-06T10:08:21.661Z,149896.09
2018-09-06T10:10:52.711Z,149881.11
2018-09-06T10:13:23.202Z,149877.36
2018-09-06T10:15:53.974Z,149816.08
2018-09-06T10:18:24.484Z,149861.08
2018-09-06T10:20:54.875Z,149896.09
2018-09-06T10:23:25.296Z,149923.62
2018-09-06T10:25:56.191Z,149946.11
2018-09-06T10:28:26.879Z,149891.09
2018-09-06T10:30:57.372Z,149891.09
2018-09-06T10:33:27.965Z,149921.12
2018-09-06T10:35:58.523Z,149891.09
2018-09-06T10:38:30.340Z,149823.56
2018-09-06T10:41:01.068Z,149802.28
2018-09-06T10:43:31.264Z,149776.06
2018-09-06T10:46:01.886Z,149802.28
2018-09-06T10:48:32.172Z,149776.06
2018-09-06T10:51:02.623Z,149738.56
2018-09-06T10:53:33.594Z,149764.78
2018-09-06T10:56:04.297Z,149839.80
2018-09-06T10:58:35.198Z,149953.61
2018-09-06T11:01:11.252Z,149962.41
2018-09-06T11:03:41.858Z,150027.47
2018-09-06T11:06:12.574Z,150043.70
2018-09-06T11:13:33.856Z,150200.16
2018-09-06T11:16:04.272Z,150196.41
2018-09-06T11:18:34.429Z,150133.78
2018-09-06T11:21:05.873Z,150126.28
2018-09-06T11:23:36.327Z,150190.13
2018-09-06T11:26:06.713Z,150223.91
2018-09-06T11:28:36.931Z,150340.38
2018-09-06T11:31:07.785Z,150238.91
2018-09-06T11:33:38.301Z,150161.31
2018-09-06T11:36:08.901Z,150137.53
2018-09-06T11:38:39.525Z,150145.02
2018-09-06T11:41:09.716Z,150141.28
2018-09-06T11:43:41.951Z,150121.28
2018-09-06T11:46:12.392Z,150128.78
2018-09-06T11:48:43.591Z,150091.23
2018-09-06T11:51:14.041Z,150126.28
2018-09-06T11:53:44.324Z,150221.41
2018-09-06T11:56:14.419Z,150280.22
2018-09-06T11:58:45.144Z,150217.66
2018-09-06T12:01:16.220Z,150205.16
2018-09-06T12:03:46.889Z,150186.37
2018-09-06T12:06:17.079Z,150043.70
2018-09-06T12:08:51.419Z,150044.95
2018-09-06T12:11:21.584Z,150017.47
2018-09-06T12:13:52.123Z,149998.62
2018-09-06T12:16:22.456Z,149972.39
2018-09-06T12:18:52.965Z,149981.14
2018-09-06T12:21:23.718Z,150018.72
2018-09-06T12:23:55.002Z,150017.47
2018-09-06T12:26:25.578Z,149952.36
2018-09-06T12:28:56.107Z,149929.88
2018-09-06T12:31:27.258Z,149959.91
2018-09-06T12:33:57.858Z,149973.64
2018-09-06T12:36:28.439Z,149933.62
2018-09-06T12:38:59.378Z,149978.64
2018-09-06T12:41:30.671Z,150008.67
2018-09-06T12:44:03.920Z,150048.70
2018-09-06T12:46:34.433Z,150086.23
2018-09-06T12:49:04.750Z,150039.95
2018-09-06T12:51:35.253Z,150047.45
2018-09-06T12:54:05.680Z,150021.22
2018-09-06T12:56:36.531Z,150008.67
2018-09-06T12:59:07.635Z,149981.14
2018-09-06T13:01:38.001Z,149939.86
2018-09-06T13:04:08.744Z,149958.66
2018-09-06T13:06:39.174Z,149972.39
2018-09-06T13:09:10.723Z,149983.63
2018-09-06T13:11:43.046Z,149984.88
2018-09-06T13:14:14.977Z,150062.50
2018-09-06T13:16:45.482Z,150118.78
2018-09-06T13:19:17.427Z,150156.31
2018-09-06T13:21:47.904Z,150131.28
2018-09-06T13:24:18.310Z,150162.56
2018-09-06T13:26:49.243Z,150180.13
2018-09-06T13:29:19.531Z,150168.81
2018-09-06T13:31:51.341Z,150121.28
2018-09-06T13:34:21.517Z,150098.78
2018-09-06T13:36:52.206Z,150027.47
2018-09-06T13:39:22.766Z,149999.88
2018-09-06T13:41:53.251Z,149916.13
2018-09-06T13:44:23.736Z,149848.59
2018-09-06T13:46:54.221Z,149876.12
2018-09-06T13:49:25.489Z,149916.13
2018-09-06T13:51:55.912Z,149898.59
2018-09-06T13:54:26.295Z,149909.88
2018-09-06T13:56:57.499Z,149948.61
2018-09-06T13:59:27.981Z,149928.63
2018-09-06T14:01:58.249Z,149961.16
2018-09-06T14:04:28.787Z,149969.89
2018-09-06T14:06:59.140Z,150006.17
2018-09-06T14:09:29.686Z,150023.72
2018-09-06T14:12:00.280Z,149998.62
2018-09-06T14:14:32.641Z,150004.92
2018-09-06T14:17:04.064Z,150009.92
2018-09-06T14:19:35.640Z,150001.12
2018-09-06T14:22:06.062Z,149977.39
2018-09-06T14:24:36.562Z,149963.66
2018-09-06T14:27:07.184Z,149943.61
2018-09-06T14:29:38.187Z,149934.88
2018-09-06T14:32:08.715Z,149946.11
2018-09-06T14:34:40.008Z,149933.62
2018-09-06T14:37:11.657Z,149903.59
2018-09-06T14:39:42.776Z,149876.12
2018-09-06T14:42:14.007Z,149879.86
2018-09-06T14:44:44.959Z,149856.09
2018-09-06T14:47:16.643Z,149859.83
2018-09-06T14:49:47.473Z,149854.84
2018-09-06T14:52:18.573Z,149841.05
2018-09-06T14:54:49.664Z,149828.56
2018-09-06T14:57:19.975Z,149762.28
2018-09-06T14:59:51.901Z,149731.08
2018-09-06T15:02:22.428Z,149684.83
2018-09-06T15:04:53.384Z,149673.59
2018-09-06T15:07:23.552Z,149613.55
2018-09-06T15:09:53.999Z,149556.09
2018-09-06T15:12:24.456Z,149517.36
2018-09-06T15:14:54.906Z,149479.83
2018-09-06T15:17:25.301Z,149396.20
2018-09-06T15:19:57.678Z,149348.75
2018-09-06T15:22:28.745Z,149276.28
2018-09-06T15:24:59.886Z,149241.33
2018-09-06T15:27:30.936Z,149187.67
2018-09-06T15:30:01.503Z,149203.92
2018-09-06T15:32:32.232Z,149230.11
2018-09-06T15:35:03.439Z,149218.88
2018-09-06T15:37:33.910Z,149216.39
2018-09-06T15:40:04.721Z,149215.14
2018-09-06T15:42:35.205Z,149151.52
2018-09-06T15:45:06.352Z,149178.94
2018-09-06T15:47:38.596Z,149183.94
2018-09-06T15:50:09.726Z,149190.16
2018-09-06T15:52:40.020Z,149190.16
2018-09-06T15:55:12.285Z,149180.19
2018-09-06T15:57:42.605Z,149188.91
2018-09-06T16:00:13.288Z,149167.72
2018-09-06T16:02:44.507Z,149135.27
2018-09-06T16:05:15.785Z,149144.00
2018-09-06T16:07:46.453Z,149119.06
2018-09-06T16:10:18.613Z,149104.06
2018-09-06T16:12:49.543Z,149115.28
2018-09-06T16:15:20.106Z,149110.30
2018-09-06T16:17:50.449Z,149116.53
2018-09-06T16:20:20.881Z,149141.50
2018-09-06T16:22:55.477Z,149129.03
2018-09-06T16:25:26.680Z,149144.00
2018-09-06T16:27:57.096Z,149121.56
2018-09-06T16:30:28.115Z,149124.05
2018-09-06T16:32:58.412Z,149116.53
2018-09-06T16:35:29.409Z,149094.03
2018-09-06T16:38:00.071Z,149087.81
2018-09-06T16:40:37.731Z,149091.55
2018-09-06T16:43:08.321Z,149081.58
2018-09-06T16:45:39.625Z,149067.87
2018-09-06T16:48:09.966Z,149066.62
2018-09-06T16:50:41.236Z,149076.59
2018-09-06T16:53:12.396Z,149097.78
2018-09-06T16:55:42.825Z,149094.03
2018-09-06T16:58:14.066Z,149124.05
2018-09-06T17:00:44.733Z,149139.00
2018-09-06T17:03:18.571Z,149146.48
2018-09-06T17:05:49.070Z,149145.23
2018-09-06T17:08:20.169Z,149155.25
2018-09-06T17:10:50.390Z,149167.72
2018-09-06T17:13:21.398Z,149208.91
2018-09-06T17:15:54.043Z,149195.16
2018-09-06T17:18:24.255Z,149191.41
2018-09-06T17:20:54.746Z,149188.91
2018-09-06T17:23:25.306Z,149154.02
2018-09-06T17:25:55.625Z,149152.77
2018-09-06T17:28:26.929Z,149176.45
2018-09-06T17:30:58.488Z,149176.45
2018-09-06T17:33:28.460Z,149181.44
2018-09-06T17:35:59.498Z,149196.39
2018-09-06T17:38:29.592Z,149186.42
2018-09-06T17:40:59.929Z,149205.17
2018-09-06T17:43:30.372Z,149178.94
2018-09-06T17:46:02.325Z,149191.41
2018-09-06T17:48:32.761Z,149176.45
2018-09-06T17:51:02.951Z,149177.69
2018-09-06T17:53:33.368Z,149182.69
2018-09-06T17:56:04.348Z,149171.47
2018-09-06T17:58:35.411Z,149155.25
2018-09-06T18:01:44.491Z,149144.00
2018-09-06T18:04:14.628Z,149139.00
2018-09-06T18:06:44.954Z,149116.53
2018-09-06T18:09:15.364Z,149099.03
2018-09-06T18:11:45.619Z,149071.61
2018-09-06T18:14:16.057Z,149085.31
2018-09-06T18:16:47.026Z,149080.33
2018-09-06T18:19:17.296Z,149074.09
2018-09-06T18:21:47.437Z,149079.09
2018-09-06T18:24:18.127Z,149046.64
2018-09-06T18:26:48.450Z,148990.52
2018-09-06T18:29:19.044Z,148939.39
2018-09-06T18:31:49.683Z,148954.34
2018-09-06T18:34:20.201Z,148993.00
2018-09-06T18:36:50.392Z,148990.52
2018-09-06T18:39:22.490Z,148988.03
2018-09-06T18:41:53.686Z,148979.31
2018-09-06T18:44:23.833Z,148951.84
2018-09-06T18:46:54.068Z,148941.88
2018-09-06T18:49:24.358Z,148931.91
2018-09-06T18:51:54.931Z,148923.19
2018-09-06T18:54:25.995Z,148888.22
2018-09-06T18:56:56.245Z,148859.53
2018-09-06T18:59:27.683Z,148847.06
2018-09-06T19:01:58.126Z,148844.58
2018-09-06T19:04:29.327Z,148864.50
2018-09-06T19:06:59.455Z,148874.52
2018-09-06T19:09:29.503Z,148837.11
2018-09-06T19:12:00.600Z,148822.16
2018-09-06T19:14:31.378Z,148819.67
2018-09-06T19:17:02.948Z,148809.66
2018-09-06T19:19:33.252Z,148835.86
2018-09-06T19:22:03.572Z,148865.75
2018-09-06T19:24:34.148Z,148858.28
2018-09-06T19:27:04.320Z,148878.25
2018-09-06T19:29:34.332Z,148901.92
2018-09-06T19:32:04.756Z,148872.03
2018-09-06T19:34:35.878Z,148815.89
2018-09-06T19:37:06.208Z,148824.66
2018-09-06T19:39:37.482Z,148849.56
2018-09-06T19:42:19.338Z,148864.50
2018-09-06T19:44:50.096Z,148849.56
2018-09-06T19:47:22.252Z,148848.31
2018-09-06T19:49:53.823Z,148848.31
2018-09-06T19:52:25.014Z,148844.58
2018-09-06T19:54:55.665Z,148849.56
2018-09-06T19:57:28.158Z,148858.28
2018-09-06T20:00:02.778Z,148857.03
2018-09-06T20:02:39.390Z,148857.03
2018-09-06T20:05:15.630Z,148864.50
2018-09-06T20:07:46.802Z,148844.58
2018-09-06T20:10:16.966Z,148864.50
2018-09-06T20:12:48.538Z,148829.63
2018-09-06T20:15:18.888Z,148817.13
2018-09-06T20:17:51.228Z,148809.66
2018-09-06T20:20:21.605Z,148805.92
2018-09-06T20:22:52.156Z,148781.03
2018-09-06T20:25:28.919Z,148769.77
2018-09-06T20:27:59.413Z,148764.78
2018-09-06T20:30:29.601Z,148741.12
2018-09-06T20:33:01.920Z,148737.39
2018-09-06T20:35:32.990Z,148724.91
2018-09-06T20:38:03.265Z,148718.67
2018-09-06T20:40:33.409Z,148727.44
2018-09-06T20:43:03.813Z,148718.67
2018-09-06T20:45:41.880Z,148722.41
2018-09-06T20:48:12.420Z,148727.44
2018-09-06T20:50:44.012Z,148709.91
2018-09-06T20:53:30.920Z,148716.13
2018-09-06T20:56:01.150Z,148708.66
2018-09-06T20:58:31.549Z,148723.66
2018-09-06T21:03:38.912Z,148712.41
2018-09-06T21:06:14.313Z,148706.17
2018-09-06T21:08:44.627Z,148707.42
2018-09-06T21:11:17.089Z,148703.69
2018-09-06T21:13:47.152Z,148707.42
2018-09-06T21:16:17.423Z,148716.13
2018-09-06T21:18:47.382Z,148726.19
2018-09-06T21:21:17.600Z,148706.17
2018-09-06T21:23:48.104Z,148699.95
2018-09-06T21:26:18.476Z,148711.16
2018-09-06T21:28:49.063Z,148701.19
2018-09-06T21:31:19.043Z,148688.75
2018-09-06T21:33:49.332Z,148673.75
2018-09-06T21:36:20.462Z,148673.75
2018-09-06T21:38:50.590Z,148638.91
2018-09-06T21:41:20.689Z,148636.42
2018-09-06T21:43:50.577Z,148622.67
2018-09-06T21:46:21.126Z,148637.66
2018-09-06T21:48:51.419Z,148650.11
2018-09-06T21:51:21.667Z,148665.05
2018-09-06T21:53:51.829Z,148656.33
2018-09-06T21:56:22.201Z,148652.59
2018-09-06T21:58:53.527Z,148645.13
2018-09-06T22:01:26.152Z,148620.19
2018-09-06T22:04:05.825Z,148621.44
2018-09-06T22:06:37.737Z,148640.16
2018-09-06T22:09:12.996Z,148628.91
2018-09-06T22:11:43.799Z,148623.92
2018-09-06T22:14:13.895Z,148625.17
2018-09-06T22:16:45.353Z,148628.91
2018-09-06T22:19:17.724Z,148628.91
2018-09-06T22:21:48.275Z,148628.91
2018-09-06T22:24:18.804Z,148645.13
2018-09-06T22:26:49.717Z,148625.17
2018-09-06T22:29:21.240Z,148622.67
2018-09-06T22:38:41.727Z,148565.38
2018-09-06T22:41:12.141Z,148579.06
2018-09-06T22:43:43.123Z,148579.06
2018-09-06T22:46:13.504Z,148582.81
2018-09-06T22:48:45.298Z,148559.16
2018-09-06T22:51:16.730Z,148567.88
2018-09-06T22:53:47.406Z,148555.42
2018-09-06T22:56:18.275Z,148559.16
2018-09-06T22:58:49.602Z,148557.92
2018-09-06T23:01:20.084Z,148554.19
2018-09-06T23:03:54.297Z,148550.45
2018-09-06T23:06:25.464Z,148536.77
2018-09-06T23:08:56.529Z,148536.77
2018-09-06T23:11:28.564Z,148523.03
2018-09-06T23:13:59.827Z,148510.58
2018-09-06T23:16:30.734Z,148503.06
2018-09-06T23:19:03.337Z,148498.09
2018-09-06T23:21:34.027Z,148490.63
2018-09-06T23:24:04.696Z,148479.38
2018-09-06T23:26:35.079Z,148485.61
2018-09-06T23:29:07.788Z,148465.69
2018-09-06T23:31:37.838Z,148450.77
2018-09-06T23:34:07.846Z,148434.55
2018-09-06T23:36:38.944Z,148450.77
2018-09-06T23:39:10.428Z,148430.81
2018-09-06T23:41:40.705Z,148422.11
2018-09-06T23:44:10.786Z,148420.88
2018-09-06T23:46:41.019Z,148432.06
2018-09-06T23:49:11.416Z,148418.38
2018-09-06T23:51:41.314Z,148398.47
2018-09-06T23:54:12.255Z,148408.42
2018-09-06T23:56:43.265Z,148418.38
2018-09-06T23:59:16.494Z,148399.72
